Time;durP1;ratioP1;P1;durP2;ratioP2;P2;SDS_P1;SDS_P2;PMS_P1;PMS_P2;Temp;Humidity;BMP_temperature;BMP_pressure;BME280_temperature;BME280_humidity;BME280_pressure;Samples;Min_cycle;Max_cycle;Signal;HPM_P1;HPM_P2
2023/12/22 00:01:40;;;;;;;19.70;9.37;;;;;;;;;;4938206;29;20625;-85
2023/12/22 00:04:09;;;;;;;21.30;9.43;;;;;;;;;;4953095;28;20218;-84
2023/12/22 00:06:39;;;;;;;22.37;9.40;;;;;;;;;;4954042;29;20210;-85
2023/12/22 00:09:11;;;;;;;22.13;7.70;;;;;;;;;;4953282;29;20205;-83
2023/12/22 00:11:41;;;;;;;8.57;6.43;;;;;;;;;;4953431;29;20210;-84
2023/12/22 00:14:10;;;;;;;20.90;9.70;;;;;;;;;;4954531;28;20214;-84
2023/12/22 00:16:41;;;;;;;15.30;8.53;;;;;;;;;;4954643;29;20210;-85
2023/12/22 00:19:10;;;;;;;12.97;8.53;;;;;;;;;;4955375;28;20205;-84
2023/12/22 00:21:39;;;;;;;18.00;8.00;;;;;;;;;;4954383;29;20258;-86
2023/12/22 00:24:06;;;;;;;12.17;8.47;;;;;;;;;;4953885;29;20245;-84
2023/12/22 00:26:36;;;;;;;13.53;8.13;;;;;;;;;;4953539;28;20305;-84
2023/12/22 00:29:06;;;;;;;20.93;8.50;;;;;;;;;;4954918;29;20234;-84
2023/12/22 00:31:36;;;;;;;11.37;6.03;;;;;;;;;;4954112;29;20656;-84
2023/12/22 00:34:13;;;;;;;22.93;9.10;;;;;;;;;;4953222;29;20266;-85
2023/12/22 00:36:56;;;;;;;21.07;6.47;;;;;;;;;;4954598;29;20229;-85
2023/12/22 00:39:26;;;;;;;19.70;7.20;;;;;;;;;;4953890;29;20322;-85
2023/12/22 00:41:58;;;;;;;16.23;7.03;;;;;;;;;;4960241;28;21007;-84
2023/12/22 00:44:29;;;;;;;14.67;6.67;;;;;;;;;;4973907;28;20464;-83
2023/12/22 00:46:58;;;;;;;13.13;7.83;;;;;;;;;;4972794;28;20209;-83
2023/12/22 00:49:30;;;;;;;11.70;6.70;;;;;;;;;;4973818;28;20202;-84
2023/12/22 00:52:00;;;;;;;12.40;7.27;;;;;;;;;;4977568;28;20205;-84
2023/12/22 00:54:31;;;;;;;9.60;6.63;;;;;;;;;;4983449;28;20572;-83
2023/12/22 00:57:05;;;;;;;15.90;6.47;;;;;;;;;;4988862;28;20345;-84
2023/12/22 00:59:34;;;;;;;17.47;7.83;;;;;;;;;;4989162;28;20204;-83
2023/12/22 01:02:03;;;;;;;17.47;6.50;;;;;;;;;;4988866;28;20201;-83
2023/12/22 01:04:34;;;;;;;17.37;7.57;;;;;;;;;;4987632;28;20237;-84
2023/12/22 01:07:04;;;;;;;15.30;6.43;;;;;;;;;;4989292;28;20206;-84
2023/12/22 01:09:37;;;;;;;19.10;8.73;;;;;;;;;;4986101;28;20201;-84
2023/12/22 01:12:07;;;;;;;14.30;7.87;;;;;;;;;;4991799;28;20209;-86
2023/12/22 01:14:37;;;;;;;14.07;7.90;;;;;;;;;;4995126;28;20197;-87
2023/12/22 01:17:09;;;;;;;13.33;7.67;;;;;;;;;;4995342;28;20582;-83
2023/12/22 01:19:40;;;;;;;14.97;8.00;;;;;;;;;;4994897;28;20206;-84
2023/12/22 01:22:11;;;;;;;15.27;7.37;;;;;;;;;;4995388;28;20190;-86
2023/12/22 01:24:43;;;;;;;18.43;8.20;;;;;;;;;;4996018;28;20217;-86
2023/12/22 01:27:11;;;;;;;12.43;6.97;;;;;;;;;;4993413;28;20361;-83
2023/12/22 01:29:41;;;;;;;13.77;6.90;;;;;;;;;;4991798;28;20646;-84
2023/12/22 01:32:14;;;;;;;17.77;6.63;;;;;;;;;;4980160;28;20218;-83
2023/12/22 01:34:44;;;;;;;11.97;6.90;;;;;;;;;;4977099;28;20193;-83
2023/12/22 01:37:14;;;;;;;11.10;6.10;;;;;;;;;;4973262;28;20202;-82
2023/12/22 01:39:43;;;;;;;9.30;5.87;;;;;;;;;;4974988;28;20240;-83
2023/12/22 01:42:13;;;;;;;13.20;7.07;;;;;;;;;;4973901;28;20245;-82
2023/12/22 01:44:42;;;;;;;15.17;6.27;;;;;;;;;;4979977;28;20237;-83
2023/12/22 01:47:12;;;;;;;13.57;6.17;;;;;;;;;;4984896;28;20486;-83
2023/12/22 01:49:42;;;;;;;13.93;6.97;;;;;;;;;;4994749;28;20865;-84
2023/12/22 01:52:11;;;;;;;14.57;6.63;;;;;;;;;;4982143;28;20294;-83
2023/12/22 01:54:40;;;;;;;8.13;5.87;;;;;;;;;;4972330;28;20285;-84
2023/12/22 01:57:08;;;;;;;10.50;5.80;;;;;;;;;;4971837;28;20210;-84
2023/12/22 01:59:37;;;;;;;12.83;6.10;;;;;;;;;;4971821;28;20210;-83
2023/12/22 02:02:07;;;;;;;12.07;6.20;;;;;;;;;;4973012;28;20446;-84
2023/12/22 02:04:36;;;;;;;7.23;4.50;;;;;;;;;;4955101;28;20538;-84
2023/12/22 02:07:04;;;;;;;10.17;5.47;;;;;;;;;;4971119;28;20323;-84
2023/12/22 02:09:33;;;;;;;9.73;5.40;;;;;;;;;;4971618;28;20648;-83
2023/12/22 02:12:03;;;;;;;16.00;6.67;;;;;;;;;;4971219;28;20201;-84
2023/12/22 02:14:31;;;;;;;6.67;4.67;;;;;;;;;;4971928;28;20209;-84
2023/12/22 02:17:04;;;;;;;14.63;5.93;;;;;;;;;;4971608;28;20260;-85
2023/12/22 02:19:41;;;;;;;12.07;5.67;;;;;;;;;;4963541;28;20260;-83
2023/12/22 02:22:12;;;;;;;8.83;5.57;;;;;;;;;;4970104;28;20367;-82
2023/12/22 02:24:43;;;;;;;11.43;6.80;;;;;;;;;;4976691;28;20233;-81
2023/12/22 02:27:14;;;;;;;12.70;5.57;;;;;;;;;;4986758;28;20260;-85
2023/12/22 02:29:44;;;;;;;5.47;3.73;;;;;;;;;;4970886;28;20730;-83
2023/12/22 02:32:14;;;;;;;11.33;5.57;;;;;;;;;;4971755;28;20228;-83
2023/12/22 02:34:43;;;;;;;9.27;6.27;;;;;;;;;;4971097;28;20604;-83
2023/12/22 02:37:12;;;;;;;10.27;6.30;;;;;;;;;;4952445;28;20203;-84
2023/12/22 02:39:42;;;;;;;7.50;5.30;;;;;;;;;;4952130;29;20206;-86
2023/12/22 02:42:13;;;;;;;9.57;5.47;;;;;;;;;;4951303;29;20688;-84
2023/12/22 02:44:42;;;;;;;16.37;6.80;;;;;;;;;;4951171;29;20277;-84
2023/12/22 02:47:10;;;;;;;13.53;6.77;;;;;;;;;;4952441;29;20402;-83
2023/12/22 02:49:41;;;;;;;11.87;6.03;;;;;;;;;;4951404;29;20262;-83
2023/12/22 02:52:12;;;;;;;18.47;7.00;;;;;;;;;;4950590;29;20618;-85
2023/12/22 02:54:42;;;;;;;33.80;8.00;;;;;;;;;;4952547;29;20253;-83
2023/12/22 02:57:13;;;;;;;15.07;7.30;;;;;;;;;;4952580;29;20685;-82
2023/12/22 02:59:42;;;;;;;10.90;7.10;;;;;;;;;;4952685;29;20526;-84
2023/12/22 03:02:12;;;;;;;10.03;6.17;;;;;;;;;;4952317;29;20207;-83
2023/12/22 03:04:40;;;;;;;10.03;6.10;;;;;;;;;;4952082;29;20238;-84
2023/12/22 03:07:08;;;;;;;13.07;6.37;;;;;;;;;;4951648;29;20210;-84
2023/12/22 03:09:39;;;;;;;14.83;6.03;;;;;;;;;;4951868;29;20223;-83
2023/12/22 03:12:08;;;;;;;12.03;6.60;;;;;;;;;;4951187;29;20273;-84
2023/12/22 03:14:40;;;;;;;7.10;5.23;;;;;;;;;;4952028;29;20218;-84
2023/12/22 03:17:14;;;;;;;14.03;7.90;;;;;;;;;;4952007;29;20203;-82
2023/12/22 03:19:43;;;;;;;11.10;6.80;;;;;;;;;;4951081;29;20203;-82
2023/12/22 03:22:15;;;;;;;12.07;6.83;;;;;;;;;;4950981;29;20230;-83
2023/12/22 03:24:46;;;;;;;9.80;5.97;;;;;;;;;;4951167;29;20338;-84
2023/12/22 03:27:17;;;;;;;12.97;5.80;;;;;;;;;;4951883;29;20237;-83
2023/12/22 03:29:47;;;;;;;11.97;6.13;;;;;;;;;;4951194;29;20195;-84
2023/12/22 03:32:16;;;;;;;9.57;5.70;;;;;;;;;;4951127;29;20250;-84
2023/12/22 03:34:47;;;;;;;15.00;6.13;;;;;;;;;;4950648;29;20229;-83
2023/12/22 03:37:19;;;;;;;13.30;7.03;;;;;;;;;;4951847;29;20611;-82
2023/12/22 03:39:48;;;;;;;7.93;6.40;;;;;;;;;;4951776;28;20207;-84
2023/12/22 03:42:18;;;;;;;12.77;6.43;;;;;;;;;;4954255;29;20723;-84
2023/12/22 03:44:48;;;;;;;10.47;6.37;;;;;;;;;;4955143;29;20206;-82
2023/12/22 03:47:18;;;;;;;21.13;6.20;;;;;;;;;;4959177;29;20264;-84
2023/12/22 03:49:48;;;;;;;11.03;6.83;;;;;;;;;;4974660;28;20246;-83
2023/12/22 03:52:17;;;;;;;9.97;7.47;;;;;;;;;;4967855;28;20232;-83
2023/12/22 03:54:47;;;;;;;13.03;8.10;;;;;;;;;;4955761;29;20206;-84
2023/12/22 03:57:14;;;;;;;15.10;5.80;;;;;;;;;;4954704;29;20287;-83
2023/12/22 03:59:44;;;;;;;10.77;6.53;;;;;;;;;;4954527;29;20217;-84
2023/12/22 04:02:14;;;;;;;9.43;6.77;;;;;;;;;;4953564;29;20217;-84
2023/12/22 04:04:44;;;;;;;8.27;5.70;;;;;;;;;;4953765;29;20298;-83
2023/12/22 04:07:15;;;;;;;12.03;6.33;;;;;;;;;;4954800;29;20361;-85
2023/12/22 04:09:44;;;;;;;18.47;6.23;;;;;;;;;;4953914;29;20207;-83
2023/12/22 04:12:14;;;;;;;15.00;7.53;;;;;;;;;;4953962;29;20215;-84
2023/12/22 04:14:43;;;;;;;11.17;6.67;;;;;;;;;;4954654;29;20297;-84
2023/12/22 04:17:11;;;;;;;12.13;6.40;;;;;;;;;;4953935;29;20191;-84
2023/12/22 04:19:42;;;;;;;15.20;6.03;;;;;;;;;;4954164;29;20203;-83
2023/12/22 04:22:12;;;;;;;12.10;6.13;;;;;;;;;;4953941;29;20206;-84
2023/12/22 04:24:42;;;;;;;17.23;7.43;;;;;;;;;;4953604;29;20199;-84
2023/12/22 04:27:11;;;;;;;13.60;6.00;;;;;;;;;;4953894;29;20230;-84
2023/12/22 04:29:40;;;;;;;14.50;6.57;;;;;;;;;;4953930;29;20199;-84
2023/12/22 04:32:10;;;;;;;8.77;6.50;;;;;;;;;;4954182;29;20223;-84
2023/12/22 04:34:38;;;;;;;19.53;8.33;;;;;;;;;;4954008;29;20198;-84
2023/12/22 04:37:08;;;;;;;11.73;5.93;;;;;;;;;;4954453;29;20298;-83
2023/12/22 04:39:37;;;;;;;9.23;6.83;;;;;;;;;;4954315;29;20289;-84
2023/12/22 04:42:06;;;;;;;12.40;6.70;;;;;;;;;;4953396;29;20300;-83
2023/12/22 04:44:35;;;;;;;12.03;7.13;;;;;;;;;;4945308;29;20198;-83
2023/12/22 04:47:05;;;;;;;20.77;7.70;;;;;;;;;;4954252;29;20711;-82
2023/12/22 04:49:34;;;;;;;14.63;7.03;;;;;;;;;;4954000;29;20312;-84
2023/12/22 04:52:01;;;;;;;15.63;7.47;;;;;;;;;;4953559;28;20634;-84
2023/12/22 04:54:37;;;;;;;17.77;7.27;;;;;;;;;;4953689;29;20290;-84
2023/12/22 04:57:14;;;;;;;14.17;7.83;;;;;;;;;;4952670;29;20202;-83
2023/12/22 04:59:45;;;;;;;8.77;6.37;;;;;;;;;;4953819;29;20218;-83
2023/12/22 05:02:21;;;;;;;14.40;7.10;;;;;;;;;;4954961;29;20213;-84
2023/12/22 05:04:50;;;;;;;15.93;6.87;;;;;;;;;;4954145;29;20210;-83
2023/12/22 05:07:19;;;;;;;11.73;5.60;;;;;;;;;;4958935;29;20656;-83
2023/12/22 05:09:51;;;;;;;14.03;6.37;;;;;;;;;;4955422;29;20198;-82
2023/12/22 05:12:20;;;;;;;7.57;5.63;;;;;;;;;;4971098;29;20210;-82
2023/12/22 05:14:49;;;;;;;12.97;6.93;;;;;;;;;;4958122;29;20219;-83
2023/12/22 05:17:21;;;;;;;10.57;5.03;;;;;;;;;;4953576;29;20193;-86
2023/12/22 05:19:51;;;;;;;8.57;5.93;;;;;;;;;;4952699;29;20198;-83
2023/12/22 05:22:20;;;;;;;14.77;7.43;;;;;;;;;;4953351;29;20209;-85
2023/12/22 05:24:53;;;;;;;8.93;6.07;;;;;;;;;;4952965;29;20337;-84
2023/12/22 05:27:23;;;;;;;10.87;6.40;;;;;;;;;;4953718;29;20223;-84
2023/12/22 05:29:52;;;;;;;11.60;6.23;;;;;;;;;;4953200;29;20190;-83
2023/12/22 05:32:21;;;;;;;14.43;6.77;;;;;;;;;;4952333;29;20237;-84
2023/12/22 05:34:52;;;;;;;15.30;7.60;;;;;;;;;;4953242;29;20195;-84
2023/12/22 05:37:25;;;;;;;14.27;6.90;;;;;;;;;;4952663;29;20294;-83
2023/12/22 05:39:55;;;;;;;14.40;7.23;;;;;;;;;;4989929;28;20584;-83
2023/12/22 05:42:23;;;;;;;15.33;8.57;;;;;;;;;;4990752;28;20722;-84
2023/12/22 05:44:53;;;;;;;7.00;5.97;;;;;;;;;;4994988;28;20197;-84
2023/12/22 05:47:22;;;;;;;12.27;6.70;;;;;;;;;;5007439;28;20244;-83
2023/12/22 05:49:52;;;;;;;12.90;6.73;;;;;;;;;;5006793;28;20209;-83
2023/12/22 05:52:26;;;;;;;6.00;4.53;;;;;;;;;;4991844;28;20209;-83
2023/12/22 05:54:56;;;;;;;12.93;6.27;;;;;;;;;;4990990;28;20280;-83
2023/12/22 05:57:27;;;;;;;8.63;6.07;;;;;;;;;;4992296;28;20217;-83
2023/12/22 05:59:59;;;;;;;11.17;5.37;;;;;;;;;;4991144;28;20239;-85
2023/12/22 06:02:30;;;;;;;6.40;4.47;;;;;;;;;;4974558;28;20209;-83
2023/12/22 06:04:57;;;;;;;11.77;6.03;;;;;;;;;;4991546;28;20201;-84
2023/12/22 06:07:26;;;;;;;9.20;5.20;;;;;;;;;;4991501;28;20312;-84
2023/12/22 06:09:58;;;;;;;11.33;6.33;;;;;;;;;;4993026;28;20203;-83
2023/12/22 06:12:32;;;;;;;13.70;6.07;;;;;;;;;;4992174;28;20213;-85
2023/12/22 06:15:05;;;;;;;13.40;7.27;;;;;;;;;;4991977;28;20348;-83
2023/12/22 06:17:54;;;;;;;14.27;6.73;;;;;;;;;;4975496;28;20209;-83
2023/12/22 06:20:26;;;;;;;13.93;6.93;;;;;;;;;;4992777;28;20213;-83
2023/12/22 06:22:54;;;;;;;20.47;6.13;;;;;;;;;;4992094;28;20284;-85
2023/12/22 06:25:25;;;;;;;14.63;7.93;;;;;;;;;;5000108;28;20320;-83
2023/12/22 06:27:55;;;;;;;10.03;5.80;;;;;;;;;;4993533;28;20204;-85
2023/12/22 06:30:26;;;;;;;11.40;6.47;;;;;;;;;;4992439;28;20197;-83
2023/12/22 06:32:57;;;;;;;13.27;6.93;;;;;;;;;;4991870;28;20668;-84
2023/12/22 06:35:25;;;;;;;12.90;6.40;;;;;;;;;;4993143;28;20206;-83
2023/12/22 06:37:56;;;;;;;9.50;6.63;;;;;;;;;;4992157;28;20257;-85
2023/12/22 06:40:28;;;;;;;15.67;6.50;;;;;;;;;;4994555;28;20205;-87
2023/12/22 06:43:00;;;;;;;16.60;7.23;;;;;;;;;;4993084;28;20237;-85
2023/12/22 06:45:30;;;;;;;12.50;6.10;;;;;;;;;;4993050;28;20570;-84
2023/12/22 06:48:00;;;;;;;8.57;5.57;;;;;;;;;;4989810;28;20674;-85
2023/12/22 06:50:30;;;;;;;6.83;5.07;;;;;;;;;;4992116;28;20302;-84
2023/12/22 06:53:08;;;;;;;12.10;5.63;;;;;;;;;;4991927;28;20293;-85
2023/12/22 06:55:38;;;;;;;14.93;6.27;;;;;;;;;;4985408;28;20279;-83
2023/12/22 06:58:10;;;;;;;16.10;6.97;;;;;;;;;;4983186;28;20205;-83
2023/12/22 07:00:40;;;;;;;9.73;6.17;;;;;;;;;;4971788;28;20202;-86
2023/12/22 07:03:10;;;;;;;14.13;5.53;;;;;;;;;;4969133;28;20217;-86
2023/12/22 07:05:37;;;;;;;10.93;6.83;;;;;;;;;;4976244;28;20202;-84
2023/12/22 07:08:11;;;;;;;8.10;5.03;;;;;;;;;;4970600;28;20210;-83
2023/12/22 07:10:42;;;;;;;9.23;5.60;;;;;;;;;;4963871;28;20632;-85
2023/12/22 07:13:09;;;;;;;11.10;5.70;;;;;;;;;;4971691;28;20214;-85
2023/12/22 07:15:38;;;;;;;14.40;7.10;;;;;;;;;;4981692;28;20206;-84
2023/12/22 07:18:08;;;;;;;12.37;7.17;;;;;;;;;;4976711;28;20210;-85
2023/12/22 07:20:38;;;;;;;13.43;6.30;;;;;;;;;;4974352;28;20292;-84
2023/12/22 07:23:06;;;;;;;10.10;6.33;;;;;;;;;;4974016;28;20214;-85
2023/12/22 07:25:36;;;;;;;16.97;7.20;;;;;;;;;;4970440;28;20360;-85
2023/12/22 07:28:07;;;;;;;9.57;5.80;;;;;;;;;;4980445;28;20226;-83
2023/12/22 07:30:38;;;;;;;10.17;4.67;;;;;;;;;;4979898;28;20202;-85
2023/12/22 07:33:07;;;;;;;10.53;5.63;;;;;;;;;;4977069;28;20226;-85
2023/12/22 07:35:37;;;;;;;11.63;6.07;;;;;;;;;;4976083;28;20205;-83
2023/12/22 07:38:09;;;;;;;17.07;7.60;;;;;;;;;;4976674;28;20210;-84
2023/12/22 07:40:37;;;;;;;9.80;5.43;;;;;;;;;;4977461;28;20202;-83
2023/12/22 07:43:09;;;;;;;15.93;6.37;;;;;;;;;;4978938;28;20580;-83
2023/12/22 07:45:39;;;;;;;8.70;6.47;;;;;;;;;;4987885;28;20237;-84
2023/12/22 07:48:14;;;;;;;13.63;7.17;;;;;;;;;;4995531;28;20222;-85
2023/12/22 07:50:45;;;;;;;18.13;7.50;;;;;;;;;;4976816;28;20219;-81
2023/12/22 07:53:13;;;;;;;10.33;6.97;;;;;;;;;;4977772;28;20754;-83
2023/12/22 07:55:43;;;;;;;12.17;6.50;;;;;;;;;;4977955;28;20201;-84
2023/12/22 07:58:14;;;;;;;9.47;6.67;;;;;;;;;;4980013;28;20221;-83
2023/12/22 08:00:46;;;;;;;17.23;7.60;;;;;;;;;;4988195;28;20200;-85
2023/12/22 08:03:15;;;;;;;12.33;7.50;;;;;;;;;;4993466;28;20225;-82
2023/12/22 08:05:43;;;;;;;19.67;7.60;;;;;;;;;;4977794;28;20202;-86
2023/12/22 08:08:12;;;;;;;11.57;6.83;;;;;;;;;;4978582;28;20233;-86
2023/12/22 08:10:41;;;;;;;13.27;7.73;;;;;;;;;;4976692;28;20202;-84
2023/12/22 08:13:16;;;;;;;8.93;6.43;;;;;;;;;;4979376;28;20257;-84
2023/12/22 08:15:45;;;;;;;11.77;6.60;;;;;;;;;;4974340;28;20216;-83
2023/12/22 08:18:16;;;;;;;13.87;6.50;;;;;;;;;;4965298;28;20213;-84
2023/12/22 08:20:49;;;;;;;19.70;8.43;;;;;;;;;;4975143;28;20659;-83
2023/12/22 08:23:17;;;;;;;8.73;6.57;;;;;;;;;;4975726;28;20705;-83
2023/12/22 08:25:49;;;;;;;13.30;6.47;;;;;;;;;;4966115;28;20354;-83
2023/12/22 08:28:23;;;;;;;12.17;6.73;;;;;;;;;;4973815;28;20244;-84
2023/12/22 08:30:53;;;;;;;11.40;6.27;;;;;;;;;;4975693;28;20221;-82
2023/12/22 08:33:27;;;;;;;13.67;7.13;;;;;;;;;;4963839;28;20238;-83
2023/12/22 08:35:56;;;;;;;12.80;6.60;;;;;;;;;;4973206;28;20256;-83
2023/12/22 08:38:27;;;;;;;16.80;7.50;;;;;;;;;;4974646;28;20209;-83
2023/12/22 08:40:59;;;;;;;11.57;6.70;;;;;;;;;;4972772;28;20252;-83
2023/12/22 08:43:31;;;;;;;12.77;7.33;;;;;;;;;;4963328;28;20681;-83
2023/12/22 08:46:18;;;;;;;9.60;6.43;;;;;;;;;;4974831;28;21121;-84
2023/12/22 08:48:47;;;;;;;8.63;6.07;;;;;;;;;;4971961;28;20327;-83
2023/12/22 08:51:18;;;;;;;20.57;7.83;;;;;;;;;;4971792;28;20202;-84
2023/12/22 08:53:47;;;;;;;16.37;8.03;;;;;;;;;;4964467;28;20206;-84
2023/12/22 08:56:21;;;;;;;10.70;5.90;;;;;;;;;;4965549;28;20230;-83
2023/12/22 09:01:42;;;;;;;18.13;9.07;;;;;;;;;;4968310;28;20218;-84
2023/12/22 09:04:12;;;;;;;15.30;8.03;;;;;;;;;;4972913;28;20209;-84
2023/12/22 09:06:47;;;;;;;12.27;5.97;;;;;;;;;;4969906;28;20242;-83
2023/12/22 09:09:19;;;;;;;17.27;7.40;;;;;;;;;;4980165;28;20668;-84
2023/12/22 09:11:49;;;;;;;15.33;9.27;;;;;;;;;;4973673;28;20229;-83
2023/12/22 09:14:20;;;;;;;12.20;7.13;;;;;;;;;;4972774;28;20226;-84
2023/12/22 09:16:52;;;;;;;20.90;8.70;;;;;;;;;;4971406;28;20201;-84
2023/12/22 09:19:26;;;;;;;14.30;8.60;;;;;;;;;;4974694;28;20214;-85
2023/12/22 09:21:58;;;;;;;16.17;8.30;;;;;;;;;;4978778;28;20212;-84
2023/12/22 09:24:29;;;;;;;14.77;9.63;;;;;;;;;;4970638;28;20198;-84
2023/12/22 09:27:02;;;;;;;14.90;8.23;;;;;;;;;;4971670;28;20726;-84
2023/12/22 09:29:36;;;;;;;14.97;8.50;;;;;;;;;;4971975;28;20584;-83
2023/12/22 09:32:06;;;;;;;21.03;9.07;;;;;;;;;;4973177;28;20229;-84
2023/12/22 09:34:37;;;;;;;21.43;9.83;;;;;;;;;;4974260;28;20312;-82
2023/12/22 09:37:08;;;;;;;21.60;9.60;;;;;;;;;;4973502;28;20205;-84
2023/12/22 09:39:39;;;;;;;16.67;9.33;;;;;;;;;;4975836;28;20198;-83
2023/12/22 09:42:08;;;;;;;19.90;9.60;;;;;;;;;;4978226;28;20234;-82
2023/12/22 09:44:41;;;;;;;16.60;10.17;;;;;;;;;;4991926;28;20275;-82
2023/12/22 09:47:12;;;;;;;20.37;10.47;;;;;;;;;;4992991;28;20316;-83
2023/12/22 09:49:40;;;;;;;22.50;10.57;;;;;;;;;;4992397;28;20197;-83
2023/12/22 09:52:09;;;;;;;29.20;11.17;;;;;;;;;;4989189;28;20220;-82
2023/12/22 09:54:38;;;;;;;19.50;10.10;;;;;;;;;;4995134;28;20190;-85
2023/12/22 09:57:07;;;;;;;17.67;9.87;;;;;;;;;;4994454;28;20217;-83
2023/12/22 09:59:36;;;;;;;16.80;9.10;;;;;;;;;;4987789;28;20559;-84
2023/12/22 10:02:06;;;;;;;13.67;9.67;;;;;;;;;;4979901;28;20227;-85
2023/12/22 10:04:36;;;;;;;17.60;10.47;;;;;;;;;;4979273;28;20258;-83
2023/12/22 10:07:08;;;;;;;15.60;9.63;;;;;;;;;;4979360;28;20396;-84
2023/12/22 10:09:39;;;;;;;19.73;11.03;;;;;;;;;;4974039;28;20793;-83
2023/12/22 10:12:17;;;;;;;15.67;9.73;;;;;;;;;;4971507;28;20750;-83
2023/12/22 10:14:50;;;;;;;21.60;10.87;;;;;;;;;;4971543;28;20212;-82
2023/12/22 10:17:25;;;;;;;23.03;10.60;;;;;;;;;;4972076;28;20194;-83
2023/12/22 10:20:03;;;;;;;18.57;10.53;;;;;;;;;;4971354;28;20209;-84
2023/12/22 10:22:34;;;;;;;15.57;9.57;;;;;;;;;;4970011;28;20202;-83
2023/12/22 10:25:03;;;;;;;16.17;9.50;;;;;;;;;;4972277;28;20266;-83
2023/12/22 10:27:36;;;;;;;31.17;9.47;;;;;;;;;;4972766;28;20291;-85
2023/12/22 10:30:09;;;;;;;15.20;8.17;;;;;;;;;;4971968;28;20206;-83
2023/12/22 10:32:41;;;;;;;9.07;6.83;;;;;;;;;;4971881;28;20226;-84
2023/12/22 10:35:14;;;;;;;7.77;5.23;;;;;;;;;;4972000;28;20217;-84
2023/12/22 10:37:43;;;;;;;4.63;2.97;;;;;;;;;;4972393;28;20228;-87
2023/12/22 10:40:13;;;;;;;2.83;2.23;;;;;;;;;;4972693;28;20735;-83
2023/12/22 10:42:46;;;;;;;2.43;1.80;;;;;;;;;;4972620;28;20254;-86
2023/12/22 10:45:19;;;;;;;1.87;1.77;;;;;;;;;;4974162;28;20280;-84
2023/12/22 10:47:50;;;;;;;1.70;1.60;;;;;;;;;;4975456;28;20210;-84
2023/12/22 10:50:24;;;;;;;2.07;1.93;;;;;;;;;;4990210;28;20570;-83
2023/12/22 10:56:15;;;;;;;0.77;0.77;;;;;;;;;;5039333;23;20321;-84
2023/12/22 10:58:48;;;;;;;0.90;0.57;;;;;;;;;;4992592;28;20309;-84
2023/12/22 11:01:33;;;;;;;1.20;1.17;;;;;;;;;;4990301;28;20276;-86
2023/12/22 11:04:03;;;;;;;0.80;0.80;;;;;;;;;;4976444;28;20294;-84
2023/12/22 11:06:37;;;;;;;2.03;1.33;;;;;;;;;;4975264;28;20205;-84
2023/12/22 11:09:15;;;;;;;1.00;1.00;;;;;;;;;;4976279;28;20324;-84
2023/12/22 11:11:49;;;;;;;1.10;1.10;;;;;;;;;;4974950;28;20684;-84
2023/12/22 11:14:20;;;;;;;1.13;1.13;;;;;;;;;;4975885;28;20225;-85
2023/12/22 11:17:02;;;;;;;0.67;0.67;;;;;;;;;;4977131;28;20244;-85
2023/12/22 11:19:52;;;;;;;1.83;1.00;;;;;;;;;;4986647;28;20194;-84
2023/12/22 11:22:27;;;;;;;0.80;0.80;;;;;;;;;;4983860;28;20262;-85
2023/12/22 11:25:01;;;;;;;1.00;1.00;;;;;;;;;;4985454;28;20207;-86
2023/12/22 11:27:32;;;;;;;0.83;0.83;;;;;;;;;;4986411;28;20214;-83
2023/12/22 11:30:16;;;;;;;0.90;0.90;;;;;;;;;;4987022;28;20202;-82
2023/12/22 11:39:26;;;;;;;1.47;1.43;;;;;;;;;;5004891;28;20249;-83
2023/12/22 11:41:59;;;;;;;2.77;1.60;;;;;;;;;;5004826;28;20206;-84
2023/12/22 11:44:29;;;;;;;1.77;1.60;;;;;;;;;;5008205;28;20248;-84
2023/12/22 12:35:43;;;;;;;1.03;0.70;;;;;;;;;;5453117;23;20253;-83
2023/12/22 12:38:13;;;;;;;0.50;0.50;;;;;;;;;;4940174;29;20219;-83
2023/12/22 12:40:51;;;;;;;0.60;0.60;;;;;;;;;;4938906;29;20657;-83
2023/12/22 12:43:21;;;;;;;2.57;1.97;;;;;;;;;;4938255;29;20191;-85
2023/12/22 12:45:48;;;;;;;7.20;0.80;;;;;;;;;;4938189;29;20207;-84
2023/12/22 12:48:18;;;;;;;1.70;1.53;;;;;;;;;;4937607;29;20235;-83
2023/12/22 12:51:12;;;;;;;1.43;1.33;;;;;;;;;;4938359;29;20637;-85
2023/12/22 12:53:42;;;;;;;1.43;1.33;;;;;;;;;;4935922;29;20294;-84
2023/12/22 12:56:14;;;;;;;1.60;1.50;;;;;;;;;;4937584;29;20191;-83
2023/12/22 12:58:45;;;;;;;1.07;1.07;;;;;;;;;;4936275;29;20701;-83
2023/12/22 13:01:15;;;;;;;2.00;1.90;;;;;;;;;;4936953;29;20206;-84
2023/12/22 13:12:04;;;;;;;1.70;1.60;;;;;;;;;;4932941;28;20297;-84
2023/12/22 13:18:05;;;;;;;0.93;0.90;;;;;;;;;;5250777;23;20198;-85
2023/12/22 13:20:38;;;;;;;0.83;0.83;;;;;;;;;;4932782;29;20760;-82
2023/12/22 13:26:51;;;;;;;1.07;0.97;;;;;;;;;;5839531;23;20322;-85
2023/12/22 13:29:24;;;;;;;3.27;1.73;;;;;;;;;;4935181;29;20253;-84
2023/12/22 13:38:07;;;;;;;1.00;1.00;;;;;;;;;;5228787;23;20298;-83
2023/12/22 13:40:55;;;;;;;1.20;1.20;;;;;;;;;;4932036;29;20685;-84
2023/12/22 13:44:01;;;;;;;1.80;1.70;;;;;;;;;;4949446;29;20210;-84
2023/12/22 13:46:47;;;;;;;1.60;1.10;;;;;;;;;;4929644;28;20687;-84
2023/12/22 13:49:25;;;;;;;0.80;0.80;;;;;;;;;;4930876;29;20239;-84
2023/12/22 13:52:19;;;;;;;1.80;0.80;;;;;;;;;;4945616;29;20219;-81
2023/12/22 13:54:56;;;;;;;1.63;1.53;;;;;;;;;;4933091;29;20586;-84
2023/12/22 13:57:30;;;;;;;1.57;1.17;;;;;;;;;;4921867;29;21337;-84
2023/12/22 14:03:25;;;;;;;1.10;1.10;;;;;;;;;;4978324;23;20284;-83
2023/12/22 14:05:55;;;;;;;0.63;0.63;;;;;;;;;;4947283;28;20224;-82
2023/12/22 14:08:32;;;;;;;0.83;0.83;;;;;;;;;;4951900;28;20297;-84
2023/12/22 14:11:00;;;;;;;1.13;1.10;;;;;;;;;;4941082;28;20300;-83
2023/12/22 14:13:38;;;;;;;0.80;0.80;;;;;;;;;;4951848;29;20227;-83
2023/12/22 14:19:26;;;;;;;0.80;0.80;;;;;;;;;;4953833;29;20226;-82
2023/12/22 14:21:53;;;;;;;0.60;0.60;;;;;;;;;;4951714;28;20241;-83
2023/12/22 14:24:26;;;;;;;1.17;1.17;;;;;;;;;;4953479;29;20314;-83
2023/12/22 14:27:04;;;;;;;1.00;1.00;;;;;;;;;;4971717;28;20258;-84
2023/12/22 14:29:36;;;;;;;1.20;1.20;;;;;;;;;;4957187;29;20634;-83
2023/12/22 14:32:08;;;;;;;1.53;1.43;;;;;;;;;;4952654;28;20340;-84
2023/12/22 14:34:50;;;;;;;1.57;1.47;;;;;;;;;;4950579;29;20227;-84
2023/12/22 14:37:22;;;;;;;0.97;0.97;;;;;;;;;;4942054;28;20242;-84
2023/12/22 14:40:11;;;;;;;2.30;1.60;;;;;;;;;;4942703;29;20222;-84
2023/12/22 14:42:46;;;;;;;2.00;1.90;;;;;;;;;;4946571;28;20230;-84
2023/12/22 14:45:16;;;;;;;1.37;1.20;;;;;;;;;;4946882;29;20245;-83
2023/12/22 14:47:51;;;;;;;2.07;1.67;;;;;;;;;;4944064;28;20261;-83
2023/12/22 14:50:26;;;;;;;1.93;1.83;;;;;;;;;;4954303;28;20312;-84
2023/12/22 14:52:58;;;;;;;3.40;2.13;;;;;;;;;;4929276;29;20253;-83
2023/12/22 14:55:34;;;;;;;1.33;1.23;;;;;;;;;;4934762;29;20229;-82
2023/12/22 14:58:06;;;;;;;2.63;1.27;;;;;;;;;;4933264;29;20234;-82
2023/12/22 15:00:54;;;;;;;1.60;1.50;;;;;;;;;;4935693;29;20238;-85
2023/12/22 15:03:25;;;;;;;1.00;1.00;;;;;;;;;;4950740;29;20247;-84
2023/12/22 15:06:02;;;;;;;1.17;0.93;;;;;;;;;;4945946;29;20218;-84
2023/12/22 15:08:35;;;;;;;1.33;1.23;;;;;;;;;;4942173;28;20699;-84
2023/12/22 15:11:13;;;;;;;1.73;1.63;;;;;;;;;;4952570;29;20759;-83
2023/12/22 15:14:09;;;;;;;1.17;1.07;;;;;;;;;;4939703;28;20249;-83
2023/12/22 15:16:44;;;;;;;1.50;1.10;;;;;;;;;;4935685;29;20227;-82
2023/12/22 15:19:28;;;;;;;2.50;2.37;;;;;;;;;;4942055;28;20247;-80
2023/12/22 15:22:13;;;;;;;3.87;1.90;;;;;;;;;;4935478;29;20227;-83
2023/12/22 15:25:04;;;;;;;;;;;;;;;;;;;;;
2023/12/22 15:30:39;;;;;;;2.03;1.73;;;;;;;;;;4933516;29;20262;-84
2023/12/22 15:33:16;;;;;;;1.57;1.50;;;;;;;;;;4946906;29;20579;-84
2023/12/22 15:35:50;;;;;;;2.47;2.03;;;;;;;;;;4943856;28;20285;-84
2023/12/22 15:38:26;;;;;;;2.17;1.97;;;;;;;;;;4947632;29;20306;-83
2023/12/22 15:41:07;;;;;;;1.10;1.07;;;;;;;;;;4945746;29;20269;-83
2023/12/22 15:43:44;;;;;;;4.37;1.80;;;;;;;;;;4940812;29;20230;-83
2023/12/22 15:46:22;;;;;;;2.20;2.10;;;;;;;;;;4943850;29;20736;-83
2023/12/22 15:49:00;;;;;;;2.03;1.87;;;;;;;;;;4942613;28;20230;-84
2023/12/22 15:51:34;;;;;;;2.23;2.13;;;;;;;;;;4948720;29;20305;-84
2023/12/22 15:54:21;;;;;;;1.90;1.80;;;;;;;;;;4936700;28;20763;-83
2023/12/22 15:57:06;;;;;;;1.80;1.70;;;;;;;;;;4949509;29;20582;-83
2023/12/22 15:59:42;;;;;;;1.70;1.60;;;;;;;;;;4944295;28;20289;-84
2023/12/22 16:02:13;;;;;;;2.37;1.83;;;;;;;;;;4946801;29;20238;-86
2023/12/22 16:05:06;;;;;;;1.57;1.47;;;;;;;;;;4944021;28;20227;-84
2023/12/22 16:07:40;;;;;;;1.60;1.50;;;;;;;;;;4936688;29;20194;-82
2023/12/22 16:10:12;;;;;;;1.00;0.83;;;;;;;;;;4965513;29;20249;-82
2023/12/22 16:16:15;;;;;;;2.47;2.27;;;;;;;;;;5133876;27;20536;-83
2023/12/22 16:18:55;;;;;;;1.63;1.53;;;;;;;;;;5132415;27;20618;-83
2023/12/22 16:21:27;;;;;;;2.47;1.47;;;;;;;;;;5140633;28;20276;-84
2023/12/22 16:23:57;;;;;;;2.20;2.00;;;;;;;;;;5135574;27;20192;-84
2023/12/22 16:26:27;;;;;;;1.97;1.43;;;;;;;;;;5126906;27;20200;-83
2023/12/22 16:28:58;;;;;;;2.40;1.70;;;;;;;;;;5125916;27;20280;-83
2023/12/22 16:31:30;;;;;;;1.70;1.20;;;;;;;;;;5117907;28;20689;-84
2023/12/22 16:34:06;;;;;;;5.20;1.33;;;;;;;;;;5130346;27;20285;-83
2023/12/22 16:36:36;;;;;;;2.03;1.80;;;;;;;;;;5127870;28;20249;-85
2023/12/22 16:39:05;;;;;;;1.23;1.20;;;;;;;;;;5133806;27;20228;-83
2023/12/22 16:41:35;;;;;;;1.60;1.50;;;;;;;;;;5144693;27;20270;-85